Time;durP1;ratioP1;P1;durP2;ratioP2;P2;SDS_P1;SDS_P2;PMS_P1;PMS_P2;Temp;Humidity;BMP_temperature;BMP_pressure;BME280_temperature;BME280_humidity;BME280_pressure;Samples;Min_cycle;Max_cycle;Signal;HPM_P1;HPM_P2
2022/01/27 00:03:47;;;;;;;;;;;;;;;4.80;60.68;100785.91;4444446;32;32869;-80
2022/01/27 00:05:49;;;;;;;;;;;;;;;4.33;61.83;100785.81;4441020;32;35831;-83
2022/01/27 00:08:24;;;;;;;;;;;;;;;4.50;61.35;100791.06;4444906;32;35034;-85
2022/01/27 00:10:56;;;;;;;;;;;;;;;4.64;60.76;100785.87;4441859;32;33168;-84
2022/01/27 00:13:29;;;;;;;;;;;;;;;4.63;60.75;100792.09;4430955;32;33675;-80
2022/01/27 00:16:23;;;;;;;;;;;;;;;4.96;59.67;100795.53;4442053;32;35723;-83
2022/01/27 00:18:59;;;;;;;;;;;;;;;4.79;60.24;100797.41;4446207;32;35312;-85
2022/01/27 00:21:27;;;;;;;;;;;;;;;5.12;59.18;100782.31;4446884;32;33093;-84
2022/01/27 00:23:56;;;;;;;;;;;;;;;4.98;59.04;100782.25;4430700;32;32421;-83
2022/01/27 00:26:24;;;;;;;;;;;;;;;4.26;61.10;100783.59;4431139;32;35621;-81
2022/01/27 00:28:51;;;;;;;;;;;;;;;3.82;62.64;100778.03;4411027;32;34892;-80
2022/01/27 00:31:20;;;;;;;;;;;;;;;3.86;62.78;100779.56;4441706;32;32986;-84
2022/01/27 00:33:48;;;;;;;;;;;;;;;4.00;62.37;100787.62;4442657;32;35080;-84
2022/01/27 00:36:16;;;;;;;;;;;;;;;4.03;62.21;100791.84;4430845;32;35048;-83
2022/01/27 00:38:44;;;;;;;;;;;;;;;3.94;62.51;100785.28;4429563;32;34540;-83
2022/01/27 00:41:13;;;;;;;;;;;;;;;4.40;61.32;100781.06;4429907;32;32608;-80
2022/01/27 00:43:43;;;;;;;;;;;;;;;4.49;60.99;100788.50;4441613;32;33810;-88
2022/01/27 00:46:15;;;;;;;;;;;;;;;4.09;62.17;100789.78;4443081;32;34582;-81
2022/01/27 00:48:47;;;;;;;;;;;;;;;4.43;61.14;100783.56;4443160;32;35622;-82
2022/01/27 00:51:22;;;;;;;;;;;;;;;4.23;61.50;100791.66;4429967;32;36437;-81
2022/01/27 00:54:02;;;;;;;;;;;;;;;4.36;61.09;100787.47;4443267;32;34586;-80
2022/01/27 00:56:41;;;;;;;;;;;;;;;4.11;61.53;100784.41;4433218;32;35651;-80
2022/01/27 01:02:06;;;;;;;;;;;;;;;4.09;61.89;100784.50;4445693;32;33942;-84
2022/01/27 01:04:37;;;;;;;;;;;;;;;4.13;61.58;100787.78;4442838;32;35670;-85
2022/01/27 01:07:07;;;;;;;;;;;;;;;4.07;61.58;100790.78;4430156;32;35213;-83
2022/01/27 01:31:09;;;;;;;;;;;;;;;3.73;62.14;100751.31;4451793;32;34567;-83
2022/01/27 01:33:39;;;;;;;;;;;;;;;4.05;61.15;100758.41;4447164;32;33942;-83
2022/01/27 01:36:27;;;;;;;;;;;;;;;4.19;60.55;100750.62;4431712;32;34739;-83
2022/01/27 01:38:55;;;;;;;;;;;;;;;4.22;60.48;100753.94;4444701;32;35434;-84
2022/01/27 01:41:22;;;;;;;;;;;;;;;4.11;61.01;100752.81;4431831;32;34811;-85
2022/01/27 01:43:50;;;;;;;;;;;;;;;3.87;61.44;100747.03;4433378;32;33772;-83
2022/01/27 01:46:17;;;;;;;;;;;;;;;3.53;62.64;100751.47;4460659;32;33892;-83
2022/01/27 01:48:45;;;;;;;;;;;;;;;3.46;62.73;100739.56;4444190;32;35493;-82
2022/01/27 01:51:15;;;;;;;;;;;;;;;4.20;60.78;100741.78;4444102;32;34811;-83
2022/01/27 01:53:43;;;;;;;;;;;;;;;3.63;62.55;100744.81;4431893;32;33659;-82
2022/01/27 01:56:11;;;;;;;;;;;;;;;3.90;61.69;100746.03;4442894;32;34082;-80
2022/01/27 01:58:41;;;;;;;;;;;;;;;3.61;62.58;100752.78;4443716;32;35276;-80
2022/01/27 02:01:10;;;;;;;;;;;;;;;3.80;62.30;100756.19;4447057;32;34511;-81
2022/01/27 02:03:37;;;;;;;;;;;;;;;3.81;62.00;100764.94;4444778;32;33410;-82
2022/01/27 02:06:06;;;;;;;;;;;;;;;3.76;62.08;100761.69;4421096;32;33947;-83
2022/01/27 02:19:11;;;;;;;;;;;;;;;3.45;62.90;100753.62;4443009;32;35170;-80
2022/01/27 02:21:43;;;;;;;;;;;;;;;3.58;62.65;100733.69;4431093;32;33697;-82
2022/01/27 02:24:11;;;;;;;;;;;;;;;3.60;62.49;100730.03;4441684;32;32740;-82
2022/01/27 02:26:39;;;;;;;;;;;;;;;3.68;62.24;100722.59;4433694;32;34413;-80
2022/01/27 02:29:08;;;;;;;;;;;;;;;3.63;62.69;100724.63;4444369;32;34965;-82
2022/01/27 02:31:36;;;;;;;;;;;;;;;3.60;62.74;100716.06;4446907;32;34338;-80
2022/01/27 02:34:05;;;;;;;;;;;;;;;3.29;63.46;100721.13;4444858;32;33487;-82
2022/01/27 02:36:33;;;;;;;;;;;;;;;3.49;62.89;100715.75;4447186;32;35305;-82
2022/01/27 02:39:02;;;;;;;;;;;;;;;3.38;63.29;100718.91;4433709;32;34968;-81
2022/01/27 02:41:31;;;;;;;;;;;;;;;3.75;62.35;100708.22;4436512;32;35029;-83
2022/01/27 02:43:59;;;;;;;;;;;;;;;4.12;61.18;100699.22;4444950;32;33469;-82
2022/01/27 02:46:31;;;;;;;;;;;;;;;3.83;61.69;100687.59;4441575;32;33218;-82
2022/01/27 02:48:59;;;;;;;;;;;;;;;3.61;62.21;100687.00;4431386;32;35057;-83
2022/01/27 02:51:26;;;;;;;;;;;;;;;3.91;61.51;100697.72;4429203;32;33989;-83
2022/01/27 02:53:55;;;;;;;;;;;;;;;3.60;62.36;100695.00;4429920;32;31442;-83
2022/01/27 02:56:24;;;;;;;;;;;;;;;3.98;61.03;100694.69;4434415;32;33966;-86
2022/01/27 02:58:52;;;;;;;;;;;;;;;4.11;60.79;100686.97;4444049;32;34116;-81
2022/01/27 03:01:20;;;;;;;;;;;;;;;3.80;61.24;100685.13;4443830;32;34618;-83
2022/01/27 03:03:48;;;;;;;;;;;;;;;3.82;61.38;100687.69;4444045;32;33643;-83
2022/01/27 03:06:16;;;;;;;;;;;;;;;4.06;60.40;100689.84;4433088;32;36557;-81
2022/01/27 03:08:43;;;;;;;;;;;;;;;4.17;59.94;100694.56;4448246;32;34719;-83
2022/01/27 03:11:16;;;;;;;;;;;;;;;4.07;60.45;100694.19;4431239;32;34436;-82
2022/01/27 03:13:44;;;;;;;;;;;;;;;4.24;59.87;100696.78;4443864;32;33573;-83
2022/01/27 03:16:12;;;;;;;;;;;;;;;3.57;61.88;100714.41;4418589;32;34104;-81
2022/01/27 03:18:40;;;;;;;;;;;;;;;3.92;61.06;100709.94;4442021;32;35359;-83
2022/01/27 03:21:09;;;;;;;;;;;;;;;3.93;61.20;100720.41;4455741;32;34457;-79
2022/01/27 03:23:37;;;;;;;;;;;;;;;3.96;60.81;100722.88;4445971;32;32542;-83
2022/01/27 03:26:05;;;;;;;;;;;;;;;3.83;61.19;100720.97;4446090;32;34517;-81
2022/01/27 03:28:32;;;;;;;;;;;;;;;3.58;61.42;100718.75;4445964;32;34606;-82
2022/01/27 03:31:01;;;;;;;;;;;;;;;3.81;60.99;100701.78;4429924;32;34153;-81
2022/01/27 03:33:29;;;;;;;;;;;;;;;3.57;61.66;100716.19;4433649;32;33874;-84
2022/01/27 03:35:56;;;;;;;;;;;;;;;3.76;60.83;100707.28;4457339;32;33910;-82
2022/01/27 03:38:26;;;;;;;;;;;;;;;3.51;61.41;100708.63;4441579;32;35248;-83
2022/01/27 03:40:53;;;;;;;;;;;;;;;3.27;62.09;100700.19;4452649;32;34920;-84
2022/01/27 03:43:21;;;;;;;;;;;;;;;3.22;62.31;100699.56;4430147;32;34184;-83
2022/01/27 03:45:49;;;;;;;;;;;;;;;3.21;62.62;100708.37;4443404;32;34050;-84
2022/01/27 03:48:17;;;;;;;;;;;;;;;3.50;61.88;100707.75;4446156;32;34666;-83
2022/01/27 03:50:44;;;;;;;;;;;;;;;3.42;61.77;100701.19;4444398;32;34773;-84
2022/01/27 03:53:14;;;;;;;;;;;;;;;3.30;62.12;100686.88;4430292;32;32816;-83
2022/01/27 03:55:42;;;;;;;;;;;;;;;3.24;62.17;100675.84;4442426;32;33314;-82
2022/01/27 03:58:10;;;;;;;;;;;;;;;3.20;62.41;100687.41;4430137;32;34963;-85
2022/01/27 04:00:39;;;;;;;;;;;;;;;3.59;61.09;100683.63;4444732;32;34614;-82
2022/01/27 04:03:10;;;;;;;;;;;;;;;3.36;61.45;100680.47;4446198;32;33028;-84
2022/01/27 04:05:53;;;;;;;;;;;;;;;3.44;61.25;100683.56;4442305;32;34150;-81
2022/01/27 04:08:22;;;;;;;;;;;;;;;3.25;61.58;100688.91;4432426;32;36132;-84
2022/01/27 04:10:50;;;;;;;;;;;;;;;3.53;60.41;100686.59;4430503;32;34250;-83
2022/01/27 04:13:18;;;;;;;;;;;;;;;3.29;61.76;100694.84;4431581;32;32863;-84
2022/01/27 04:15:46;;;;;;;;;;;;;;;3.21;61.72;100699.66;4442186;32;33480;-83
2022/01/27 04:18:14;;;;;;;;;;;;;;;3.28;61.87;100691.37;4417410;32;36050;-87
2022/01/27 04:20:41;;;;;;;;;;;;;;;3.32;61.63;100689.44;4430464;32;34741;-83
2022/01/27 04:23:10;;;;;;;;;;;;;;;3.57;60.43;100695.13;4459308;32;32607;-82
2022/01/27 04:25:38;;;;;;;;;;;;;;;3.43;60.79;100695.84;4447240;32;33429;-79
2022/01/27 04:28:13;;;;;;;;;;;;;;;3.71;60.09;100697.91;4430237;32;35310;-82
2022/01/27 04:30:40;;;;;;;;;;;;;;;3.90;58.87;100703.91;4453915;32;34790;-86
2022/01/27 04:33:08;;;;;;;;;;;;;;;3.49;60.37;100711.31;4429522;32;33254;-83
2022/01/27 04:35:42;;;;;;;;;;;;;;;3.72;59.76;100697.00;4445761;32;34201;-83
2022/01/27 04:40:50;;;;;;;;;;;;;;;3.88;59.06;100680.31;4428438;32;35105;-81
2022/01/27 04:48:21;;;;;;;;;;;;;;;3.93;58.82;100686.19;4446960;32;34134;-85
2022/01/27 04:50:50;;;;;;;;;;;;;;;4.11;58.10;100698.37;4459788;32;34188;-80
2022/01/27 04:53:26;;;;;;;;;;;;;;;3.84;58.81;100696.34;4429791;32;33308;-83
2022/01/27 04:56:14;;;;;;;;;;;;;;;3.81;59.25;100699.13;4445730;32;34215;-82
2022/01/27 04:58:45;;;;;;;;;;;;;;;3.94;58.92;100697.56;4444999;32;34707;-80
2022/01/27 05:01:13;;;;;;;;;;;;;;;3.92;58.67;100697.66;4433361;32;33805;-83
2022/01/27 05:03:48;;;;;;;;;;;;;;;3.70;59.36;100696.22;4447191;32;34186;-81
2022/01/27 05:06:15;;;;;;;;;;;;;;;3.70;59.49;100690.97;4461329;32;33929;-81
2022/01/27 05:08:44;;;;;;;;;;;;;;;4.05;58.75;100696.06;4446813;32;35968;-80
2022/01/27 05:11:33;;;;;;;;;;;;;;;3.89;58.98;100689.91;4446367;32;34501;-82
2022/01/27 05:14:36;;;;;;;;;;;;;;;4.39;57.84;100677.50;4457035;32;34494;-82
2022/01/27 05:16:56;;;;;;;;;;;;;;;4.00;58.61;100677.03;4442589;32;34432;-83
2022/01/27 05:19:23;;;;;;;;;;;;;;;3.69;60.03;100681.37;4444239;32;34531;-81
2022/01/27 05:21:51;;;;;;;;;;;;;;;3.74;59.72;100677.56;4459500;32;35003;-80
2022/01/27 05:24:21;;;;;;;;;;;;;;;3.55;59.93;100689.97;4443907;32;32603;-85
2022/01/27 05:26:49;;;;;;;;;;;;;;;3.73;59.72;100686.41;4444013;32;34934;-83
2022/01/27 05:29:17;;;;;;;;;;;;;;;3.68;59.82;100691.03;4444165;32;36147;-83
2022/01/27 05:31:44;;;;;;;;;;;;;;;3.79;59.52;100685.22;4438575;32;34918;-84
2022/01/27 05:34:13;;;;;;;;;;;;;;;3.84;59.14;100693.72;4441035;32;34408;-82
2022/01/27 05:36:41;;;;;;;;;;;;;;;3.93;58.99;100678.28;4449597;32;33312;-86
2022/01/27 05:39:08;;;;;;;;;;;;;;;3.95;59.17;100681.69;4431416;32;33540;-81
2022/01/27 05:41:36;;;;;;;;;;;;;;;4.11;58.62;100684.34;4444489;32;34715;-80
2022/01/27 05:44:04;;;;;;;;;;;;;;;4.00;58.67;100676.19;4441060;32;33222;-81
2022/01/27 05:46:32;;;;;;;;;;;;;;;3.64;59.98;100680.75;4440897;32;33065;-86
2022/01/27 05:49:00;;;;;;;;;;;;;;;3.69;59.67;100668.22;4441483;32;34448;-81
2022/01/27 05:51:29;;;;;;;;;;;;;;;3.78;60.00;100675.62;4449035;32;34816;-82
2022/01/27 05:53:57;;;;;;;;;;;;;;;3.48;60.73;100685.94;4442442;32;33181;-80
2022/01/27 05:56:25;;;;;;;;;;;;;;;4.02;59.36;100666.41;4431357;32;34607;-82
2022/01/27 05:58:52;;;;;;;;;;;;;;;3.76;60.23;100666.94;4440279;32;34891;-81
2022/01/27 06:01:20;;;;;;;;;;;;;;;3.75;60.16;100663.47;4442001;32;35048;-80
2022/01/27 06:03:48;;;;;;;;;;;;;;;3.87;60.30;100664.63;4440877;32;34844;-82
2022/01/27 06:06:15;;;;;;;;;;;;;;;3.78;60.18;100663.31;4443603;32;34012;-80
2022/01/27 06:08:44;;;;;;;;;;;;;;;3.82;60.13;100659.59;4448233;32;34924;-81
2022/01/27 06:11:12;;;;;;;;;;;;;;;3.94;59.54;100661.56;4442526;32;34269;-81
2022/01/27 06:13:39;;;;;;;;;;;;;;;3.86;59.97;100655.84;4429220;32;33951;-81
2022/01/27 06:19:28;;;;;;;;;;;;;;;4.04;59.61;100654.88;4451506;32;35242;-84
2022/01/27 06:23:11;;;;;;;;;;;;;;;3.93;59.95;100643.22;4437929;32;33306;-84
2022/01/27 06:25:45;;;;;;;;;;;;;;;4.05;59.48;100655.72;4432530;32;31771;-81
2022/01/27 06:28:37;;;;;;;;;;;;;;;3.96;60.02;100664.97;4448426;32;33441;-81
2022/01/27 06:38:00;;;;;;;;;;;;;;;3.62;61.44;100666.81;4394836;32;31626;-82
2022/01/27 06:43:59;;;;;;;;;;;;;;;3.60;61.66;100685.31;4403468;32;35751;-82
2022/01/27 06:50:21;;;;;;;;;;;;;;;4.08;60.14;100698.50;4402368;32;33232;-82
2022/01/27 06:52:51;;;;;;;;;;;;;;;3.62;61.31;100703.66;4395008;32;35275;-81
2022/01/27 06:56:29;;;;;;;;;;;;;;;3.93;60.36;100699.34;4405642;32;34208;-83
2022/01/27 06:59:10;;;;;;;;;;;;;;;;;;;;;
2022/01/27 07:02:16;;;;;;;;;;;;;;;4.04;60.13;100706.66;4415364;32;33389;-81
2022/01/27 07:08:12;;;;;;;;;;;;;;;3.94;60.14;100711.56;4409546;32;35163;-84
2022/01/27 07:17:17;;;;;;;;;;;;;;;4.04;59.99;100688.22;4407209;32;33461;-84
2022/01/27 07:23:26;;;;;;;;;;;;;;;3.71;60.96;100692.66;4418938;32;35289;-82
2022/01/27 07:33:22;;;;;;;;;;;;;;;3.34;61.96;100688.41;4373721;32;36528;-82
2022/01/27 07:35:41;;;;;;;;;;;;;;;3.89;60.20;100678.53;4357898;32;34057;-85
2022/01/27 07:38:47;;;;;;;;;;;;;;;3.63;60.87;100672.03;4361604;32;34207;-82
2022/01/27 07:42:16;;;;;;;;;;;;;;;3.72;60.56;100675.94;4368786;32;33185;-82
2022/01/27 07:54:51;;;;;;;;;;;;;;;3.92;60.12;100663.44;4352480;32;32246;-82
2022/01/27 08:01:09;;;;;;;;;;;;;;;3.81;59.79;100657.91;4365438;32;34857;-84
2022/01/27 08:07:10;;;;;;;;;;;;;;;;;;;;;
2022/01/27 08:10:13;;;;;;;;;;;;;;;;;;;;;
2022/01/27 08:13:57;;;;;;;;;;;;;;;4.14;58.96;100649.97;4392898;32;36877;-82
2022/01/27 08:16:58;;;;;;;;;;;;;;;4.26;58.82;100649.28;4382551;32;31684;-83
2022/01/27 08:19:46;;;;;;;;;;;;;;;4.35;58.33;100651.41;4399332;32;32903;-82
2022/01/27 08:23:05;;;;;;;;;;;;;;;;;;;;;
2022/01/27 08:35:12;;;;;;;;;;;;;;;;;;;;;
2022/01/27 08:38:09;;;;;;;;;;;;;;;4.49;58.25;100643.59;4395932;32;35007;-81
2022/01/27 08:41:06;;;;;;;;;;;;;;;4.94;57.44;100648.88;4408282;32;33388;-82
2022/01/27 08:44:13;;;;;;;;;;;;;;;5.10;56.37;100645.25;4406225;32;33729;-87
2022/01/27 08:50:10;;;;;;;;;;;;;;;5.52;55.38;100626.91;4404345;32;34569;-82
2022/01/27 08:53:51;;;;;;;;;;;;;;;5.63;54.95;100638.50;4427404;32;34213;-82
2022/01/27 08:59:51;;;;;;;;;;;;;;;5.77;53.86;100646.41;4418041;32;37266;-82
2022/01/27 09:02:58;;;;;;;;;;;;;;;;;;;;;
2022/01/27 09:06:28;;;;;;;;;;;;;;;5.71;54.13;100648.59;4426897;32;33505;-82
2022/01/27 09:09:54;;;;;;;;;;;;;;;5.89;53.77;100643.06;4396092;32;34807;-82
2022/01/27 09:18:33;;;;;;;;;;;;;;;4.96;55.45;100654.91;4381374;32;32589;-83
2022/01/27 09:28:06;;;;;;;;;;;;;;;;;;;;;
2022/01/27 09:30:59;;;;;;;;;;;;;;;;;;;;;
2022/01/27 09:40:48;;;;;;;;;;;;;;;;;;;;;
2022/01/27 09:43:45;;;;;;;;;;;;;;;5.89;53.25;100658.91;4372278;32;32865;-85
2022/01/27 09:52:50;;;;;;;;;;;;;;;5.66;53.96;100645.38;4379542;32;35439;-81
2022/01/27 09:55:37;;;;;;;;;;;;;;;6.05;52.69;100638.53;4383898;32;31964;-82
2022/01/27 09:58:44;;;;;;;;;;;;;;;5.62;53.59;100639.47;4382032;32;34898;-82
2022/01/27 10:05:14;;;;;;;;;;;;;;;6.16;53.18;100640.50;4396726;32;34149;-81
2022/01/27 10:08:26;;;;;;;;;;;;;;;6.21;52.98;100636.63;4382430;32;33155;-81
2022/01/27 10:12:08;;;;;;;;;;;;;;;6.47;52.57;100632.31;4396915;32;33900;-82
2022/01/27 10:18:34;;;;;;;;;;;;;;;6.46;51.85;100615.63;4396300;32;34758;-87
2022/01/27 10:22:06;;;;;;;;;;;;;;;6.03;52.64;100611.38;4368945;32;33439;-82
2022/01/27 10:31:54;;;;;;;;;;;;;;;7.45;50.01;100586.88;4390760;32;35107;-80
2022/01/27 10:41:14;;;;;;;;;;;;;;;7.50;49.78;100579.47;4383448;32;35926;-81
2022/01/27 10:46:49;;;;;;;;;;;;;;;;;;;;;
2022/01/27 10:49:47;;;;;;;;;;;;;;;;;;;;;
2022/01/27 11:14:31;;;;;;;;;;;;;;;6.95;50.14;100521.53;4403463;32;34836;-80
2022/01/27 11:17:37;;;;;;;;;;;;;;;7.47;48.31;100526.72;4409552;32;35769;-82
2022/01/27 11:39:37;;;;;;;;;;;;;;;;;;;;;
2022/01/27 11:43:03;;;;;;;;;;;;;;;7.52;48.56;100488.37;4381476;32;34034;-81
2022/01/27 11:49:30;;;;;;;;;;;;;;;7.90;47.46;100473.25;4369543;32;33685;-82
2022/01/27 11:59:09;;;;;;;;;;;;;;;;;;;;;
2022/01/27 12:02:27;;;;;;;;;;;;;;;7.83;47.71;100464.03;4438740;32;33457;-81
2022/01/27 12:08:40;;;;;;;;;;;;;;;7.57;47.51;100458.94;4344978;32;33907;-82
2022/01/27 12:18:30;;;;;;;;;;;;;;;8.17;48.20;100460.63;4327531;32;35576;-81
2022/01/27 12:21:53;;;;;;;;;;;;;;;8.68;46.36;100459.41;4352343;32;35098;-81
2022/01/27 12:28:47;;;;;;;;;;;;;;;8.61;45.33;100468.81;4336828;32;33828;-84
2022/01/27 12:34:35;;;;;;;;;;;;;;;7.79;47.44;100449.34;4342902;32;33362;-81
2022/01/27 12:37:45;;;;;;;;;;;;;;;;;;;;;
2022/01/27 12:50:36;;;;;;;;;;;;;;;8.30;47.31;100411.06;4371135;32;34715;-82
2022/01/27 12:54:02;;;;;;;;;;;;;;;8.76;46.02;100402.19;4367940;32;33109;-80
2022/01/27 13:00:04;;;;;;;;;;;;;;;9.11;45.54;100384.34;4349927;32;34435;-81
2022/01/27 13:03:06;;;;;;;;;;;;;;;8.79;46.58;100398.44;4340296;32;33950;-80
2022/01/27 13:05:49;;;;;;;;;;;;;;;9.34;44.21;100372.75;4342839;32;32681;-82
2022/01/27 13:22:27;;;;;;;;;;;;;;;;;;;;;
2022/01/27 13:25:12;;;;;;;;;;;;;;;8.29;47.95;100334.34;4263915;33;35311;-80
2022/01/27 13:28:34;;;;;;;;;;;;;;;8.40;48.00;100340.50;4251865;33;33999;-81
2022/01/27 13:31:42;;;;;;;;;;;;;;;;;;;;;
2022/01/27 13:37:31;;;;;;;;;;;;;;;9.00;46.74;100331.25;4220833;33;36156;-81
2022/01/27 13:47:21;;;;;;;;;;;;;;;9.51;45.80;100331.53;4224795;33;32583;-81
2022/01/27 13:50:31;;;;;;;;;;;;;;;9.57;45.25;100337.22;4294117;33;35145;-80
2022/01/27 14:02:47;;;;;;;;;;;;;;;9.25;45.64;100300.97;4372739;32;35476;-84
2022/01/27 14:06:22;;;;;;;;;;;;;;;9.06;45.75;100290.97;4380868;32;34045;-86
2022/01/27 14:12:54;;;;;;;;;;;;;;;8.74;47.24;100290.03;3670948;33;21029848;-81
2022/01/27 14:15:48;;;;;;;;;;;;;;;9.77;45.15;100291.25;4314833;32;36135;-81
2022/01/27 14:19:23;;;;;;;;;;;;;;;10.05;43.82;100279.19;4361471;32;32086;-80
2022/01/27 14:22:31;;;;;;;;;;;;;;;9.12;46.36;100290.50;4312384;33;34155;-81
2022/01/27 14:25:56;;;;;;;;;;;;;;;;;;;;;
2022/01/27 14:29:07;;;;;;;;;;;;;;;;;;;;;
2022/01/27 14:35:12;;;;;;;;;;;;;;;9.72;45.04;100274.03;4256886;33;34446;-82
2022/01/27 14:38:27;;;;;;;;;;;;;;;9.60;45.72;100267.91;4260245;33;35380;-83
2022/01/27 14:45:32;;;;;;;;;;;;;;;9.03;47.08;100254.06;4338684;32;32797;-80
2022/01/27 14:48:07;;;;;;;;;;;;;;;8.59;48.03;100246.16;4344797;32;33821;-79
2022/01/27 14:52:02;;;;;;;;;;;;;;;8.32;48.62;100243.97;4327484;32;36215;-77
2022/01/27 14:58:03;;;;;;;;;;;;;;;;;;;;;
2022/01/27 15:01:03;;;;;;;;;;;;;;;7.65;50.46;100268.59;4332023;32;32432;-79
2022/01/27 15:13:17;;;;;;;;;;;;;;;7.74;50.01;100236.13;4310542;33;34486;-79
2022/01/27 15:22:42;;;;;;;;;;;;;;;7.20;51.14;100235.78;4323874;32;31222;-80
2022/01/27 15:28:40;;;;;;;;;;;;;;;7.24;51.07;100224.00;4305320;33;35771;-79
2022/01/27 15:31:39;;;;;;;;;;;;;;;6.88;51.98;100210.81;4331067;32;36280;-79
2022/01/27 15:41:32;;;;;;;;;;;;;;;6.67;52.14;100222.94;4333199;33;35086;-85
2022/01/27 15:44:11;;;;;;;;;;;;;;;7.07;51.00;100221.75;4350749;32;33592;-79
2022/01/27 15:47:19;;;;;;;;;;;;;;;6.80;51.55;100210.53;4413080;32;33626;-78
2022/01/27 15:53:49;;;;;;;;;;;;;;;6.85;51.53;100203.13;4443498;32;35982;-84
2022/01/27 15:56:42;;;;;;;;;;;;;;;6.53;52.33;100207.22;4436700;32;34813;-79
2022/01/27 16:06:17;;;;;;;;;;;;;;;;;;;;;
2022/01/27 16:18:27;;;;;;;;;;;;;;;6.40;52.87;100184.41;4369403;32;34111;-79
2022/01/27 16:22:13;;;;;;;;;;;;;;;6.04;53.66;100186.97;4377923;32;34771;-79
2022/01/27 16:25:13;;;;;;;;;;;;;;;6.45;52.54;100179.66;4344207;32;31641;-80
2022/01/27 16:27:39;;;;;;;;;;;;;;;6.35;52.71;100175.97;4351020;32;35579;-79
2022/01/27 16:40:06;;;;;;;;;;;;;;;;;;;;;
2022/01/27 16:43:58;;;;;;;;;;;;;;;6.67;51.51;100164.78;4419829;32;35799;-80
2022/01/27 16:46:29;;;;;;;;;;;;;;;;;;;;;
2022/01/27 16:49:15;;;;;;;;;;;;;;;6.96;50.87;100157.34;4444421;32;32490;-80
2022/01/27 16:58:31;;;;;;;;;;;;;;;7.00;50.55;100154.38;4447824;32;33861;-80
2022/01/27 17:04:22;;;;;;;;;;;;;;;6.99;50.44;100150.03;4400788;32;31970;-79
2022/01/27 17:08:20;;;;;;;;;;;;;;;6.71;51.14;100149.56;4381593;32;35451;-78
2022/01/27 17:14:39;;;;;;;;;;;;;;;6.92;50.67;100138.22;4362290;32;32111;-79
2022/01/27 17:20:56;;;;;;;;;;;;;;;6.72;51.07;100132.72;4386240;32;35293;-80
2022/01/27 17:32:25;;;;;;;;;;;;;;;6.61;50.90;100136.13;4360367;32;36419;-81
2022/01/27 17:35:38;;;;;;;;;;;;;;;6.40;51.94;100132.41;4390815;32;35749;-83
2022/01/27 17:38:40;;;;;;;;;;;;;;;6.15;52.79;100135.09;4386281;32;34250;-83
2022/01/27 17:41:38;;;;;;;;;;;;;;;6.19;52.16;100138.38;4403094;32;35614;-80
2022/01/27 17:51:22;;;;;;;;;;;;;;;6.31;52.01;100135.72;4429702;32;31156;-80
2022/01/27 17:54:16;;;;;;;;;;;;;;;6.13;52.60;100138.78;4427252;32;33984;-80
2022/01/27 18:01:16;;;;;;;;;;;;;;;6.25;52.51;100130.84;4388440;32;34581;-80
2022/01/27 18:10:44;;;;;;;;;;;;;;;6.07;52.92;100128.69;4371467;32;35236;-81
2022/01/27 18:17:23;;;;;;;;;;;;;;;6.00;53.68;100128.28;4381019;32;32407;-80
2022/01/27 18:20:27;;;;;;;;;;;;;;;5.79;54.39;100135.03;4371900;32;34864;-79
2022/01/27 18:29:52;;;;;;;;;;;;;;;;;;;;;
2022/01/27 18:33:39;;;;;;;;;;;;;;;6.00;53.70;100124.78;4381004;32;33888;-80
2022/01/27 18:39:28;;;;;;;;;;;;;;;6.38;52.69;100107.03;4375392;32;34839;-81
2022/01/27 18:42:46;;;;;;;;;;;;;;;;;;;;;
2022/01/27 18:48:41;;;;;;;;;;;;;;;6.10;53.43;100117.91;4381147;32;35105;-80
2022/01/27 18:51:45;;;;;;;;;;;;;;;6.11;53.42;100109.88;4384097;32;34075;-87
2022/01/27 18:57:45;;;;;;;;;;;;;;;5.76;54.62;100106.19;4365635;32;34372;-79
2022/01/27 19:00:51;;;;;;;;;;;;;;;5.91;54.27;100114.87;4378368;32;36730;-83
2022/01/27 19:04:28;;;;;;;;;;;;;;;;;;;;;
2022/01/27 19:07:15;;;;;;;;;;;;;;;5.71;54.67;100115.37;4381517;32;35265;-80
2022/01/27 19:10:10;;;;;;;;;;;;;;;6.02;53.72;100112.31;4381879;32;33065;-79
2022/01/27 19:13:26;;;;;;;;;;;;;;;;;;;;;
2022/01/27 19:22:18;;;;;;;;;;;;;;;;;;;;;
2022/01/27 19:29:04;;;;;;;;;;;;;;;6.28;52.67;100092.81;4418000;32;34507;-85
2022/01/27 19:31:32;;;;;;;;;;;;;;;6.35;52.17;100102.00;4398435;32;35240;-84
2022/01/27 19:35:08;;;;;;;;;;;;;;;;;;;;;
2022/01/27 19:44:29;;;;;;;;;;;;;;;6.33;52.04;100114.47;4390687;32;34221;-82
2022/01/27 19:53:49;;;;;;;;;;;;;;;6.13;53.05;100096.53;4384806;32;34406;-85
2022/01/27 20:00:19;;;;;;;;;;;;;;;6.19;53.09;100085.53;4334284;32;33623;-83
2022/01/27 20:03:38;;;;;;;;;;;;;;;;;;;;;
2022/01/27 20:07:10;;;;;;;;;;;;;;;5.55;55.27;100096.25;4290348;33;36368;-86
2022/01/27 20:09:42;;;;;;;;;;;;;;;;;;;;;
2022/01/27 20:12:31;;;;;;;;;;;;;;;5.36;55.19;100093.19;4313240;33;34205;-81
2022/01/27 20:21:57;;;;;;;;;;;;;;;4.84;55.51;100086.25;4311694;33;32830;-85
2022/01/27 20:25:07;;;;;;;;;;;;;;;5.12;54.94;100075.56;4319759;33;34963;-82
2022/01/27 20:28:10;;;;;;;;;;;;;;;5.02;54.83;100077.97;4312203;33;35863;-83
2022/01/27 20:31:05;;;;;;;;;;;;;;;4.97;55.11;100072.16;4311883;33;34886;-84
2022/01/27 20:34:36;;;;;;;;;;;;;;;5.08;54.57;100082.00;4272511;33;34233;-81
2022/01/27 20:49:26;;;;;;;;;;;;;;;5.28;54.31;100074.41;4438542;32;34304;-83
2022/01/27 20:55:51;;;;;;;;;;;;;;;5.25;54.64;100073.75;4387991;32;35199;-83
2022/01/27 21:02:42;;;;;;;;;;;;;;;;;;;;;
2022/01/27 21:09:40;;;;;;;;;;;;;;;;;;;;;
2022/01/27 21:12:20;;;;;;;;;;;;;;;5.16;55.39;100088.44;4360892;32;32744;-81
2022/01/27 21:21:26;;;;;;;;;;;;;;;5.02;56.18;100090.31;4373574;32;35448;-83
2022/01/27 21:27:55;;;;;;;;;;;;;;;;;;;;;
2022/01/27 21:37:07;;;;;;;;;;;;;;;4.69;58.97;100085.47;4379792;32;33689;-85
2022/01/27 21:43:23;;;;;;;;;;;;;;;4.84;59.27;100092.38;4389667;32;35704;-83
2022/01/27 21:46:18;;;;;;;;;;;;;;;4.76;60.47;100093.81;4427671;32;33319;-85
2022/01/27 21:56:33;;;;;;;;;;;;;;;4.88;61.86;100122.00;4362887;32;35435;-83
2022/01/27 22:12:00;;;;;;;;;;;;;;;;;;;;;
2022/01/27 22:20:56;;;;;;;;;;;;;;;5.02;64.18;100085.91;4329009;33;33770;-83
2022/01/27 22:24:31;;;;;;;;;;;;;;;;;;;;;
2022/01/27 22:27:31;;;;;;;;;;;;;;;5.01;64.60;100081.53;4424833;32;33603;-84
2022/01/27 22:44:21;;;;;;;;;;;;;;;5.43;62.79;100054.91;4435661;32;33839;-83
2022/01/27 22:53:05;;;;;;;;;;;;;;;5.57;63.16;100036.31;4435706;32;33689;-84
2022/01/27 22:56:13;;;;;;;;;;;;;;;5.46;63.46;100052.03;4422512;32;34556;-84
2022/01/27 22:59:34;;;;;;;;;;;;;;;5.17;64.57;100061.09;4417648;32;35598;-83
2022/01/27 23:08:47;;;;;;;;;;;;;;;5.60;63.26;100050.13;4388180;32;33870;-84
2022/01/27 23:24:38;;;;;;;;;;;;;;;;;;;;;
2022/01/27 23:33:42;;;;;;;;;;;;;;;;;;;;;
